createdAt,value
2023-07-03T00:02:03.728Z,97924.34
2023-07-03T00:15:17.698Z,97917.97
2023-07-03T00:17:51.013Z,97927.09
2023-07-03T00:20:24.693Z,97928.13
2023-07-03T00:22:58.065Z,97919.34
2023-07-03T00:25:31.688Z,97926.63
2023-07-03T00:41:44.645Z,97924.84
2023-07-03T00:44:27.693Z,97927.53
2023-07-03T00:47:01.037Z,97933.97
2023-07-03T00:49:39.705Z,97926.88
2023-07-03T00:52:14.271Z,97931.59
2023-07-03T00:54:48.658Z,97925.56
2023-07-03T00:57:24.029Z,97929.28
2023-07-03T01:07:32.665Z,97916.25
2023-07-03T01:10:12.652Z,97914.75
2023-07-03T01:13:05.686Z,97926.59
2023-07-03T01:15:44.095Z,97923.25
2023-07-03T01:18:24.697Z,97918.84
2023-07-03T01:21:10.372Z,97915.47
2023-07-03T01:34:31.644Z,97915.88
2023-07-03T01:37:12.697Z,97910.66
2023-07-03T01:39:47.727Z,97906.44
2023-07-03T01:42:21.681Z,97901.19
2023-07-03T01:44:55.039Z,97902.41
2023-07-03T01:47:29.679Z,97893.66
2023-07-03T02:03:48.159Z,97882.56
2023-07-03T02:06:27.681Z,97881.88
2023-07-03T02:09:02.523Z,97880.38
2023-07-03T02:11:39.687Z,97881.59
2023-07-03T02:14:13.924Z,97879.06
2023-07-03T02:16:49.763Z,97865.69
2023-07-03T02:29:59.680Z,97865.09
2023-07-03T02:32:39.386Z,97856.31
2023-07-03T02:35:19.704Z,97858.38
2023-07-03T02:37:52.943Z,97852.09
2023-07-03T02:40:26.710Z,97854.97
2023-07-03T02:43:00.062Z,97851.59
2023-07-03T02:55:34.656Z,97838.16
2023-07-03T02:58:14.674Z,97842.84
2023-07-03T03:00:48.286Z,97847.44
2023-07-03T03:03:21.743Z,97847.59
2023-07-03T03:05:55.242Z,97845.94
2023-07-03T03:22:11.700Z,97840.38
2023-07-03T03:24:45.316Z,97847.66
2023-07-03T03:27:18.688Z,97849.47
2023-07-03T03:29:51.981Z,97839.88
2023-07-03T03:32:26.732Z,97846.13
2023-07-03T03:35:00.100Z,97839.88
2023-07-03T03:37:35.686Z,97832.78
2023-07-03T03:48:05.747Z,97829.44
2023-07-03T03:50:46.731Z,97822.34
2023-07-03T03:53:23.406Z,97830.44
2023-07-03T03:56:04.693Z,97835.84
2023-07-03T03:58:40.473Z,97843.94
2023-07-03T04:01:13.717Z,97842.25
2023-07-03T04:14:51.697Z,97832.66
2023-07-03T04:17:24.995Z,97828.06
2023-07-03T04:19:58.681Z,97828.06
2023-07-03T04:22:32.028Z,97833.47
2023-07-03T04:25:05.684Z,97833.47
2023-07-03T04:27:38.931Z,97831.97
2023-07-03T04:43:54.690Z,97835.88
2023-07-03T04:46:29.064Z,97842.97
2023-07-03T04:49:03.693Z,97830.47
2023-07-03T04:51:36.981Z,97832.16
2023-07-03T04:54:10.694Z,97837.56
2023-07-03T04:56:44.084Z,97835.69
2023-07-03T05:09:39.669Z,97825.25
2023-07-03T05:12:19.688Z,97825.06
2023-07-03T05:14:52.950Z,97822.03
2023-07-03T05:17:26.706Z,97818.13
2023-07-03T05:19:59.953Z,97818.63
2023-07-03T05:22:33.721Z,97830.75
2023-07-03T05:35:50.632Z,97815.63
2023-07-03T05:38:24.969Z,97821.53
2023-07-03T05:40:58.676Z,97823.84
2023-07-03T05:43:32.020Z,97815.59
2023-07-03T05:46:05.701Z,97818.13
2023-07-03T05:48:39.050Z,97819.44
2023-07-03T05:51:14.685Z,97826.19
2023-07-03T06:01:44.670Z,97840.56
2023-07-03T06:04:25.053Z,97835.06
2023-07-03T06:07:02.062Z,97837.03
2023-07-03T06:09:43.694Z,97843.78
2023-07-03T06:12:16.932Z,97847.47
2023-07-03T06:14:50.714Z,97844.19
2023-07-03T06:17:24.214Z,97848.91
2023-07-03T06:30:18.683Z,97848.88
2023-07-03T06:32:58.762Z,97850.03
2023-07-03T06:35:32.007Z,97853.69
2023-07-03T06:38:05.684Z,97863.78
2023-07-03T06:40:39.083Z,97859.09
2023-07-03T06:43:12.711Z,97861.06
2023-07-03T06:56:32.707Z,97865.97
2023-07-03T06:59:05.958Z,97867.16
2023-07-03T07:01:39.725Z,97870.41
2023-07-03T07:04:13.162Z,97863.63
2023-07-03T07:06:47.709Z,97872.34
2023-07-03T07:09:21.038Z,97869.97
2023-07-03T07:11:56.725Z,97865.06
2023-07-03T07:22:08.683Z,97862.84
2023-07-03T07:24:48.828Z,97864.59
2023-07-03T07:27:23.856Z,97866.31
2023-07-03T07:29:57.692Z,97857.81
2023-07-03T07:32:31.085Z,97865.75
2023-07-03T07:35:04.699Z,97870.09
2023-07-03T07:37:37.983Z,97872.94
2023-07-03T07:50:28.674Z,97871.31
2023-07-03T07:53:08.705Z,97875.13
2023-07-03T07:55:42.238Z,97874.63
2023-07-03T07:58:15.715Z,97874.50
2023-07-03T08:00:52.946Z,97875.41
2023-07-03T08:17:14.712Z,97878.78
2023-07-03T08:19:47.984Z,97885.53
2023-07-03T08:22:21.714Z,97886.38
2023-07-03T08:24:55.045Z,97886.34
2023-07-03T08:27:28.719Z,97898.81
2023-07-03T08:30:11.237Z,97888.16
2023-07-03T08:32:53.786Z,97887.53
2023-07-03T08:42:45.691Z,97887.72
2023-07-03T08:45:27.737Z,97900.44
2023-07-03T08:48:09.002Z,97885.63
2023-07-03T08:50:55.936Z,97895.53
2023-07-03T08:53:39.973Z,97888.25
2023-07-03T08:56:23.727Z,97893.50
2023-07-03T09:09:44.695Z,97892.03
2023-07-03T09:12:25.062Z,97897.88
2023-07-03T09:15:13.932Z,97883.63
2023-07-03T09:17:49.070Z,97898.66
2023-07-03T09:23:11.719Z,97908.31
2023-07-03T09:36:36.719Z,97914.91
2023-07-03T09:39:12.773Z,97894.81
2023-07-03T09:41:48.084Z,97901.88
2023-07-03T09:44:23.388Z,97900.19
2023-07-03T09:47:07.430Z,97904.38
2023-07-03T09:49:41.122Z,97901.91
2023-07-03T09:52:16.852Z,97905.50
2023-07-03T10:08:25.093Z,97921.28
2023-07-03T10:13:47.127Z,97920.50
2023-07-03T10:16:31.955Z,97918.88
2023-07-03T10:29:51.745Z,97920.63
2023-07-03T10:32:28.695Z,97921.06
2023-07-03T10:35:17.750Z,97914.81
2023-07-03T10:38:03.387Z,97909.22
2023-07-03T10:40:54.123Z,97909.44
2023-07-03T10:57:49.694Z,97905.56
2023-07-03T11:00:46.746Z,97906.63
2023-07-03T11:03:31.475Z,97903.69
2023-07-03T11:06:17.724Z,97907.28
2023-07-03T11:09:00.119Z,97911.66
2023-07-03T11:11:52.718Z,97906.25
2023-07-03T11:25:18.746Z,97902.91
2023-07-03T11:28:06.576Z,97905.44
2023-07-03T11:30:49.104Z,97897.44
2023-07-03T11:33:23.888Z,97890.75
2023-07-03T11:35:59.772Z,97892.84
2023-07-03T11:49:42.722Z,97901.44
2023-07-03T11:52:30.489Z,97908.75
2023-07-03T11:55:16.749Z,97900.78
2023-07-03T11:58:09.530Z,97896.38
2023-07-03T12:01:33.781Z,97907.88
2023-07-03T12:18:13.705Z,97904.13
2023-07-03T12:20:54.771Z,97903.69
2023-07-03T12:23:36.629Z,97904.09
2023-07-03T12:26:19.746Z,97896.56
2023-07-03T12:29:04.216Z,97899.88
2023-07-03T12:31:44.743Z,97900.72
2023-07-03T12:44:57.717Z,97907.31
2023-07-03T12:47:31.075Z,97908.97
2023-07-03T12:50:05.726Z,97906.84
2023-07-03T12:52:39.093Z,97906.44
2023-07-03T12:55:15.329Z,97899.50
2023-07-03T12:57:49.339Z,97909.56
2023-07-03T13:10:39.698Z,97913.97
2023-07-03T13:13:26.847Z,97917.50
2023-07-03T13:16:15.071Z,97909.88
2023-07-03T13:19:05.781Z,97920.97
2023-07-03T13:21:40.263Z,97921.19
2023-07-03T13:37:55.750Z,97908.66
2023-07-03T13:40:34.186Z,97916.66
2023-07-03T13:43:14.753Z,97924.88
2023-07-03T13:45:48.349Z,97916.66
2023-07-03T13:48:21.854Z,97917.03
2023-07-03T13:50:56.722Z,97911.75
2023-07-03T14:03:27.793Z,97909.59
2023-07-03T14:06:07.752Z,97908.69
2023-07-03T14:08:43.004Z,97907.56
2023-07-03T14:11:16.786Z,97902.22
2023-07-03T14:13:51.053Z,97909.75
2023-07-03T14:16:25.567Z,97910.97
2023-07-03T14:30:14.951Z,97912.47
2023-07-03T14:32:55.555Z,97911.59
2023-07-03T14:35:36.755Z,97919.94
2023-07-03T14:38:10.005Z,97916.28
2023-07-03T14:40:44.824Z,97907.63
2023-07-03T14:43:20.903Z,97905.00
2023-07-03T14:56:53.747Z,97888.91
2023-07-03T14:59:37.772Z,97895.56
2023-07-03T15:02:11.182Z,97892.97
2023-07-03T15:04:44.774Z,97895.25
2023-07-03T15:07:18.085Z,97881.94
2023-07-03T15:09:51.775Z,97892.06
2023-07-03T15:12:25.513Z,97890.16
2023-07-03T15:25:15.738Z,97888.97
2023-07-03T15:27:55.762Z,97888.63
2023-07-03T15:30:28.972Z,97901.13
2023-07-03T15:33:03.852Z,97898.19
2023-07-03T15:35:37.075Z,97899.13
2023-07-03T15:38:10.770Z,97894.13
2023-07-03T15:51:23.758Z,97900.81
2023-07-03T15:53:57.030Z,97895.69
2023-07-03T15:56:30.780Z,97896.09
2023-07-03T15:59:05.040Z,97893.13
2023-07-03T16:01:38.922Z,97895.03
2023-07-03T16:04:12.141Z,97898.19
2023-07-03T16:06:47.757Z,97902.47
2023-07-03T16:17:10.799Z,97910.66
2023-07-03T16:20:11.190Z,97923.09
2023-07-03T16:22:46.958Z,97920.94
2023-07-03T16:25:20.759Z,97932.13
2023-07-03T16:27:54.186Z,97934.63
2023-07-03T16:30:27.870Z,97937.13
2023-07-03T16:33:01.056Z,97940.25
2023-07-03T16:45:51.949Z,97953.00
2023-07-03T16:48:51.003Z,97954.69
2023-07-03T16:51:25.651Z,97956.41
2023-07-03T16:53:58.806Z,97964.38
2023-07-03T16:56:32.126Z,97957.38
2023-07-03T17:12:47.806Z,97958.72
2023-07-03T17:15:21.035Z,97961.75
2023-07-03T17:17:54.790Z,97962.69
2023-07-03T17:20:28.331Z,97956.72
2023-07-03T17:23:01.779Z,97963.56
2023-07-03T17:25:36.329Z,97966.13
2023-07-03T17:28:11.783Z,97960.00
2023-07-03T17:37:56.758Z,97980.91
2023-07-03T17:40:37.033Z,97991.34
2023-07-03T17:43:12.014Z,97985.94
2023-07-03T17:45:45.789Z,97984.59
2023-07-03T17:48:19.216Z,97987.25
2023-07-03T17:50:52.787Z,97985.28
2023-07-03T17:53:25.997Z,97975.31
2023-07-03T18:06:16.793Z,97986.34
2023-07-03T18:08:56.794Z,97987.66
2023-07-03T18:11:30.190Z,97979.75
2023-07-03T18:14:03.855Z,97985.47
2023-07-03T18:16:37.107Z,97994.19
2023-07-03T18:32:52.884Z,98002.41
2023-07-03T18:35:26.043Z,98004.16
2023-07-03T18:37:59.797Z,97998.50
2023-07-03T18:40:33.229Z,97994.09
2023-07-03T18:43:07.793Z,98001.28
2023-07-03T18:45:41.033Z,98002.16
2023-07-03T18:48:16.834Z,97999.25
2023-07-03T18:58:01.786Z,98021.97
2023-07-03T19:00:41.810Z,98016.31
2023-07-03T19:03:22.494Z,98012.75
2023-07-03T19:06:02.805Z,98027.88
2023-07-03T19:08:36.024Z,98023.25
2023-07-03T19:11:16.821Z,98025.78
2023-07-03T19:24:29.819Z,98032.13
2023-07-03T19:27:03.738Z,98035.44
2023-07-03T19:29:36.805Z,98039.03
2023-07-03T19:32:10.155Z,98044.91
2023-07-03T19:34:43.788Z,98045.53
2023-07-03T19:37:17.005Z,98049.91
2023-07-03T19:53:32.813Z,98049.69
2023-07-03T19:56:13.436Z,98054.72
2023-07-03T19:58:54.794Z,98057.00
2023-07-03T20:01:28.081Z,98053.00
2023-07-03T20:04:01.939Z,98054.44
2023-07-03T20:06:35.206Z,98056.72
2023-07-03T20:19:25.785Z,98062.13
2023-07-03T20:22:05.838Z,98060.00
2023-07-03T20:24:39.069Z,98066.25
2023-07-03T20:27:12.818Z,98057.00
2023-07-03T20:29:49.113Z,98068.31
2023-07-03T20:32:29.837Z,98060.75
2023-07-03T20:45:41.833Z,98059.38
2023-07-03T20:48:15.078Z,98064.38
2023-07-03T20:50:56.549Z,98057.66
2023-07-03T20:53:31.082Z,98064.34
2023-07-03T20:56:08.819Z,98066.84
2023-07-03T20:58:44.505Z,98062.81
2023-07-03T21:11:36.792Z,98059.56
2023-07-03T21:14:17.868Z,98062.69
2023-07-03T21:16:51.178Z,98065.78
2023-07-03T21:19:24.807Z,98061.78
2023-07-03T21:21:58.028Z,98059.47
2023-07-03T21:24:31.823Z,98062.56
2023-07-03T21:27:07.259Z,98069.47
2023-07-03T21:39:55.815Z,98059.69
2023-07-03T21:42:37.867Z,98061.94
2023-07-03T21:45:11.494Z,98068.81
2023-07-03T21:47:44.872Z,98062.94
2023-07-03T21:50:18.519Z,98062.47
2023-07-03T21:52:53.823Z,98065.41
2023-07-03T22:06:05.817Z,98073.59
2023-07-03T22:08:39.154Z,98066.88
2023-07-03T22:11:12.818Z,98068.31
2023-07-03T22:13:46.838Z,98059.03
2023-07-03T22:16:21.831Z,98064.66
2023-07-03T22:32:58.811Z,98061.88
2023-07-03T22:35:38.800Z,98063.97
2023-07-03T22:38:12.188Z,98067.03
2023-07-03T22:40:45.839Z,98066.41
2023-07-03T22:43:20.339Z,98064.06
2023-07-03T22:45:54.965Z,98063.59
2023-07-03T22:48:30.144Z,98063.59
2023-07-03T22:58:29.857Z,98060.34
2023-07-03T23:01:07.725Z,98067.19
2023-07-03T23:03:49.854Z,98062.97
2023-07-03T23:06:23.337Z,98058.97
2023-07-03T23:08:56.816Z,98060.19
2023-07-03T23:11:30.119Z,98064.31
2023-07-03T23:25:05.816Z,98063.47
2023-07-03T23:27:47.818Z,98061.97
2023-07-03T23:30:21.057Z,98071.34
2023-07-03T23:32:54.855Z,98073.59
2023-07-03T23:35:28.086Z,98068.53
2023-07-03T23:38:01.861Z,98068.88
2023-07-03T23:51:57.866Z,98067.84
2023-07-03T23:54:31.449Z,98061.94
2023-07-03T23:57:04.847Z,98055.84
2023-07-03T23:59:38.186Z,98055.19
